• Join FlightAware (Why Join?)
  • Login
  • US Flag 
05:28AM EDT


 

Airport Tracker/Info


-or-


 

Live Flight TrackerFlight Track Log ✈ SWA1729 ✈ 18-Apr-2013 ✈ KHOU - KELP

Flight Track Log - Related Links

Times and Time Zones

All times are in EDT time to prevent confusion due to time zone crossing. See the SWA1729 flight status page for this flight to view local times or setup timezone preferences in your user account.

Time Position Orientation Groundspeed Altitude Reporting Facility
EDT Latitude Longitude Course Direction KTS MPH feet Rate Location/Type
11:43PM 29.6497 -95.2850 308° West 142 163 600  Level Houston Center
11:44PM 29.6722 -95.3181 308° West 155 178 2,500 2,040 Climbing Houston Center
11:45PM 29.7072 -95.3711 307° West 198 228 4,700 2,400 Climbing Houston Center
11:46PM 29.7536 -95.4283 313° West 238 274 7,400 3,000 Climbing Houston Center
11:47PM 29.8106 -95.4864 319° Northwest 262 302 10,900 2,820 Climbing Houston Center
11:48PM 29.8736 -95.5456 321° Northwest 284 327 13,200 2,220 Climbing Houston Center
11:49PM 29.8886 -95.6408 280° West 306 352 15,500 2,640 Climbing Houston Center
11:50PM 29.8958 -95.7375 275° West 303 349 18,600 2,760 Climbing Houston Center
11:51PM 29.9053 -95.8589 275° West 318 366 21,200 2,340 Climbing Houston Center
11:52PM 29.9125 -95.9653 275° West 332 382 23,400 2,040 Climbing Houston Center
11:53PM 29.9194 -96.0539 275° West 331 381 25,400 1,860 Climbing Houston Center
11:54PM 29.9286 -96.1819 275° West 335 386 27,200 1,620 Climbing Houston Center
11:55PM 29.9361 -96.2922 275° West 346 398 28,700 1,320 Climbing Houston Center
11:56PM 29.9450 -96.4036 275° West 352 405 30,000 1,800 Climbing Houston Center
11:57PM 29.9525 -96.5131 275° West 345 397 32,400 1,800 Climbing Houston Center
11:58PM 29.9664 -96.6144 279° West 329 379 33,700 1,140 Climbing Houston Center
11:59PM 29.9897 -96.7169 285° West 332 382 34,700 960 Climbing Houston Center
12:00AM 30.0122 -96.8211 284° West 336 387 35,700 600 Climbing Houston Center
12:01AM 30.0353 -96.9256 284° West 338 389 36,000 120 Climbing Houston Center
12:02AM 30.0581 -97.0317 284° West 342 394 36,000  Level Houston Center
12:03AM 30.0811 -97.1372 284° West 342 394 36,000  Level Houston Center
12:04AM 30.1061 -97.2494 284° West 333 383 36,000  Level Houston Center
12:05AM 30.1292 -97.3556 284° West 337 388 36,000  Level Houston Center
12:06AM 30.1517 -97.4628 284° West 339 390 36,000  Level Houston Center
12:07AM 30.1742 -97.5678 284° West 336 387 36,000  Level Houston Center
12:08AM 30.1975 -97.6744 284° West 336 387 36,000  Level Houston Center
12:09AM 30.2197 -97.7786 284° West 334 384 36,000  Level Houston Center
12:10AM 30.2428 -97.8875 284° West 331 381 36,000  Level Houston Center
12:11AM 30.2667 -97.9981 284° West 330 380 36,000  Level Houston Center
12:12AM 30.2869 -98.1003 283° West 327 376 36,000  Level Houston Center
12:13AM 30.3089 -98.2025 284° West 328 377 36,000  Level Houston Center
12:14AM 30.3292 -98.2969 284° West 326 375 36,000  Level Houston Center
12:15AM 30.3503 -98.4003 283° West 326 375 36,000  Level Houston Center
12:16AM 30.3714 -98.5042 283° West 327 376 36,000  Level Houston Center
12:17AM 30.3928 -98.6064 284° West 324 373 36,000  Level Houston Center
12:18AM 30.4133 -98.7103 283° West 327 376 36,000  Level Houston Center
12:19AM 30.4347 -98.8117 284° West 323 372 36,000  Level Houston Center
12:20AM 30.4569 -98.9169 284° West 332 382 36,000  Level Houston Center
12:21AM 30.4781 -99.0208 283° West 329 379 36,000  Level Houston Center
12:22AM 30.5006 -99.1272 284° West 330 380 36,000  Level Houston Center
12:23AM 30.5211 -99.2300 283° West 329 379 36,000  Level Houston Center
12:24AM 30.5419 -99.3322 283° West 327 376 36,000  Level Houston Center
12:25AM 30.5614 -99.4336 283° West 324 373 36,000  Level Houston Center
12:26AM 30.5808 -99.5339 283° West 321 369 36,000  Level Houston Center
12:27AM 30.6017 -99.6339 284° West 320 368 36,000  Level Houston Center
12:28AM 30.6211 -99.7333 283° West 319 367 36,000  Level Houston Center
12:30AM 30.6400 -99.8325 283° West 317 365 36,000  Level Houston Center
12:31AM 30.6597 -99.9333 283° West 320 368 36,000  Level Houston Center
12:32AM 30.6836 -100.0528 283° West 319 367 36,000  Level Houston Center
12:33AM 30.7028 -100.1539 282° West 321 369 36,000 -60 Level Houston Center
12:34AM 30.7225 -100.2550 283° West 323 372 35,900  Descending Houston Center
12:35AM 30.7411 -100.3561 282° West 324 373 36,000  Climbing Houston Center
12:36AM 30.7606 -100.4586 282° West 328 377 36,000  Level Houston Center
12:37AM 30.7803 -100.5625 282° West 334 384 36,000  Level Houston Center
12:38AM 30.7992 -100.6644 282° West 328 377 36,000 -60 Level Houston Center
12:39AM 30.8197 -100.7664 283° West 325 374 35,900  Descending Houston Center
12:40AM 30.8383 -100.8722 282° West 333 383 36,000  Climbing Houston Center
12:41AM 30.8575 -100.9728 283° West 324 373 36,000  Level Houston Center
12:42AM 30.8756 -101.0767 281° West 330 380 36,000  Level Houston Center
12:43AM 30.8967 -101.1792 284° West 330 380 36,000  Level Houston Center
12:44AM 30.9147 -101.2811 282° West 324 373 36,000  Level Houston Center
12:45AM 30.9325 -101.3886 281° West 327 376 36,000  Level Albuquerque Center
12:46AM 30.9519 -101.4917 282° West 326 375 36,000  Level Albuquerque Center
12:47AM 30.9708 -101.5939 282° West 325 374 36,000  Level Albuquerque Center
12:48AM 30.9889 -101.6969 282° West 324 373 36,000  Level Albuquerque Center
12:49AM 31.0081 -101.7981 282° West 323 372 36,000  Level Albuquerque Center
12:50AM 31.0253 -101.9008 281° West 322 371 36,000  Level Albuquerque Center
12:51AM 31.0436 -102.0056 282° West 332 382 36,000  Level Albuquerque Center
12:52AM 31.0622 -102.1092 282° West 328 377 36,000  Level Albuquerque Center
12:53AM 31.0808 -102.2122 282° West 326 375 36,000  Level Albuquerque Center
12:54AM 31.0994 -102.3167 282° West 327 376 36,000  Level Albuquerque Center
12:55AM 31.1175 -102.4206 282° West 327 376 36,000  Level Albuquerque Center
12:56AM 31.1350 -102.5264 281° West 330 380 36,000  Level Albuquerque Center
12:57AM 31.1542 -102.6361 282° West 325 374 36,000  Level Albuquerque Center
12:58AM 31.1728 -102.7433 281° West 333 383 36,000  Level Albuquerque Center
12:59AM 31.1911 -102.8508 281° West 336 387 36,000  Level Albuquerque Center
01:00AM 31.2089 -102.9561 281° West 333 383 36,000  Level Albuquerque Center
01:01AM 31.2267 -103.0622 281° West 333 383 36,000  Level Albuquerque Center
01:02AM 31.2439 -103.1694 281° West 335 386 36,000  Level Albuquerque Center
01:03AM 31.2619 -103.2772 281° West 336 387 36,000  Level Albuquerque Center
01:04AM 31.2803 -103.3850 281° West 337 388 36,000  Level Albuquerque Center
01:05AM 31.3064 -103.5144 283° West 340 391 36,000  Level Albuquerque Center
01:06AM 31.3256 -103.6217 282° West 338 389 36,000  Level Albuquerque Center
01:07AM 31.3467 -103.7306 283° West 341 392 36,000  Level Albuquerque Center
01:08AM 31.3689 -103.8406 283° West 342 394 36,000  Level Albuquerque Center
01:09AM 31.3900 -103.9489 279° West 342 394 36,000  Level Albuquerque Center
01:10AM 31.3935 -104.0144 279° West  Level FlightAware Approximate
01:12AM 31.4553 -104.2747 283° West 344 396 36,000  Level Albuquerque Center
01:13AM 31.4750 -104.3831 282° West 343 395 35,900  Descending Albuquerque Center
01:14AM 31.4944 -104.4903 282° West 341 392 36,000  Climbing Albuquerque Center
01:15AM 31.5144 -104.5972 282° West 340 391 36,000  Level Albuquerque Center
01:16AM 31.5344 -104.7036 282° West 338 389 36,000 -1,140 Level Albuquerque Center
01:17AM 31.5533 -104.8089 282° West 336 387 33,700 -2,400 Descending Albuquerque Center
01:18AM 31.5719 -104.9128 282° West 331 381 31,200 -2,340 Descending Albuquerque Center
01:19AM 31.5911 -105.0178 282° West 332 382 29,000 -2,460 Descending Albuquerque Center
01:20AM 31.6153 -105.1442 283° West 333 383 26,300 -2,460 Descending Albuquerque Center
01:21AM 31.6333 -105.2503 281° West 334 384 24,100 -2,160 Descending Albuquerque Center
01:22AM 31.6508 -105.3564 281° West 309 356 22,000 -2,040 Descending Albuquerque Center
01:23AM 31.6683 -105.4494 282° West 291 335 20,000 -1,980 Descending Albuquerque Center
01:24AM 31.6864 -105.5447 283° West 297 342 18,000 -1,980 Descending Albuquerque Center
01:25AM 31.7028 -105.6431 281° West 307 353 16,100 -1,980 Descending Albuquerque Center
01:26AM 31.7206 -105.7386 282° West 302 348 14,100 -2,040 Descending Albuquerque Center
01:27AM 31.7364 -105.8344 281° West 298 343 12,100 -1,980 Descending Albuquerque Center
01:28AM 31.7544 -105.9325 282° West 290 334 10,200 -1,440 Descending Albuquerque Center
01:29AM 31.7683 -106.0189 281° West 262 302 9,200 -900 Descending Albuquerque Center
01:30AM 31.7819 -106.0931 282° West 231 266 8,400 -1,200 Descending Albuquerque Center
01:31AM 31.7936 -106.1675 280° West 227 261 6,900 -1,020 Descending Albuquerque Center
01:32AM 31.7936 -106.2375 270° West 215 247 6,400 -840 Descending Albuquerque Center
01:33AM 31.7969 -106.2917 274° West 161 185 5,300 -1,020 Descending Albuquerque Center
01:34AM 31.7994 -106.3411 273° West 141 162 4,400 -900 Descending Albuquerque Center
01:36AM 31.8000 -106.3667 270° West  Level FlightAware Approximate
01:43AM 31.8072 -106.3764 270° West  Level Estimated
01:44AM 31.8072 -106.3764 270° West  Level Estimated
01:45AM 31.8072 -106.3764 270° West  Level Estimated
01:46AM 31.8072 -106.3764 270° West  Level Estimated